sensor_id;sensor_type;location;lat;lon;timestamp;P1;durP1;ratioP1;P2;durP2;ratioP2
70806;SDS011;58882;52.170;5.386;2023-06-14T00:02:50;7.88;;;3.20;;
70806;SDS011;58882;52.170;5.386;2023-06-14T00:05:30;10.88;;;2.95;;
70806;SDS011;58882;52.170;5.386;2023-06-14T00:08:29;9.95;;;3.17;;
70806;SDS011;58882;52.170;5.386;2023-06-14T00:11:10;9.43;;;3.10;;
70806;SDS011;58882;52.170;5.386;2023-06-14T00:13:57;8.25;;;2.95;;
70806;SDS011;58882;52.170;5.386;2023-06-14T00:16:30;7.25;;;3.03;;
70806;SDS011;58882;52.170;5.386;2023-06-14T00:19:24;11.80;;;3.10;;
70806;SDS011;58882;52.170;5.386;2023-06-14T00:22:08;9.50;;;2.95;;
70806;SDS011;58882;52.170;5.386;2023-06-14T00:24:55;6.30;;;2.80;;
70806;SDS011;58882;52.170;5.386;2023-06-14T00:27:29;12.40;;;2.92;;
70806;SDS011;58882;52.170;5.386;2023-06-14T00:30:23;6.20;;;2.88;;
70806;SDS011;58882;52.170;5.386;2023-06-14T00:32:57;10.27;;;2.80;;
70806;SDS011;58882;52.170;5.386;2023-06-14T00:35:50;10.05;;;2.80;;
70806;SDS011;58882;52.170;5.386;2023-06-14T00:38:31;7.50;;;2.85;;
70806;SDS011;58882;52.170;5.386;2023-06-14T00:41:17;12.85;;;2.95;;
70806;SDS011;58882;52.170;5.386;2023-06-14T00:43:51;8.90;;;2.90;;
70806;SDS011;58882;52.170;5.386;2023-06-14T00:46:47;7.18;;;2.92;;
70806;SDS011;58882;52.170;5.386;2023-06-14T00:49:27;10.20;;;2.80;;
70806;SDS011;58882;52.170;5.386;2023-06-14T00:52:16;11.70;;;2.83;;
70806;SDS011;58882;52.170;5.386;2023-06-14T00:54:57;10.10;;;2.88;;
70806;SDS011;58882;52.170;5.386;2023-06-14T00:57:50;10.48;;;2.67;;
70806;SDS011;58882;52.170;5.386;2023-06-14T01:00:24;9.88;;;2.70;;
70806;SDS011;58882;52.170;5.386;2023-06-14T01:03:17;6.03;;;2.65;;
70806;SDS011;58882;52.170;5.386;2023-06-14T01:06:00;9.50;;;2.58;;
70806;SDS011;58882;52.170;5.386;2023-06-14T01:12:24;8.55;;;2.88;;
70806;SDS011;58882;52.170;5.386;2023-06-14T01:15:31;10.32;;;2.70;;
70806;SDS011;58882;52.170;5.386;2023-06-14T01:18:05;8.45;;;3.10;;
70806;SDS011;58882;52.170;5.386;2023-06-14T01:21:03;10.48;;;3.00;;
70806;SDS011;58882;52.170;5.386;2023-06-14T01:23:47;11.95;;;2.90;;
70806;SDS011;58882;52.170;5.386;2023-06-14T01:26:35;6.57;;;2.60;;
70806;SDS011;58882;52.170;5.386;2023-06-14T01:29:18;9.18;;;2.88;;
70806;SDS011;58882;52.170;5.386;2023-06-14T01:32:11;7.40;;;2.70;;
70806;SDS011;58882;52.170;5.386;2023-06-14T01:34:52;9.95;;;2.78;;
70806;SDS011;58882;52.170;5.386;2023-06-14T01:37:39;8.23;;;2.70;;
70806;SDS011;58882;52.170;5.386;2023-06-14T01:40:21;17.25;;;3.33;;
70806;SDS011;58882;52.170;5.386;2023-06-14T01:43:08;6.22;;;3.15;;
70806;SDS011;58882;52.170;5.386;2023-06-14T01:45:58;9.95;;;2.90;;
70806;SDS011;58882;52.170;5.386;2023-06-14T01:48:40;8.65;;;3.08;;
70806;SDS011;58882;52.170;5.386;2023-06-14T01:51:26;11.07;;;3.03;;
70806;SDS011;58882;52.170;5.386;2023-06-14T01:54:00;9.10;;;2.80;;
70806;SDS011;58882;52.170;5.386;2023-06-14T01:56:53;8.07;;;2.67;;
70806;SDS011;58882;52.170;5.386;2023-06-14T01:59:27;10.38;;;2.75;;
70806;SDS011;58882;52.170;5.386;2023-06-14T02:02:21;12.10;;;2.88;;
70806;SDS011;58882;52.170;5.386;2023-06-14T02:05:02;11.40;;;2.83;;
70806;SDS011;58882;52.170;5.386;2023-06-14T02:07:55;8.45;;;2.92;;
70806;SDS011;58882;52.170;5.386;2023-06-14T02:10:36;8.63;;;2.63;;
70806;SDS011;58882;52.170;5.386;2023-06-14T02:13:23;6.25;;;3.03;;
70806;SDS011;58882;52.170;5.386;2023-06-14T02:15:57;7.05;;;2.58;;
70806;SDS011;58882;52.170;5.386;2023-06-14T02:18:50;11.82;;;3.03;;
70806;SDS011;58882;52.170;5.386;2023-06-14T02:21:31;5.40;;;2.47;;
70806;SDS011;58882;52.170;5.386;2023-06-14T02:24:17;7.00;;;2.83;;
70806;SDS011;58882;52.170;5.386;2023-06-14T02:26:58;7.75;;;2.70;;
70806;SDS011;58882;52.170;5.386;2023-06-14T02:30:03;8.68;;;2.42;;
70806;SDS011;58882;52.170;5.386;2023-06-14T02:32:44;10.75;;;2.90;;
70806;SDS011;58882;52.170;5.386;2023-06-14T02:35:38;9.10;;;2.65;;
70806;SDS011;58882;52.170;5.386;2023-06-14T02:41:05;9.85;;;2.88;;
70806;SDS011;58882;52.170;5.386;2023-06-14T02:43:39;6.35;;;2.63;;
70806;SDS011;58882;52.170;5.386;2023-06-14T02:46:33;10.70;;;2.40;;
70806;SDS011;58882;52.170;5.386;2023-06-14T02:49:14;7.15;;;2.35;;
70806;SDS011;58882;52.170;5.386;2023-06-14T02:52:00;8.88;;;3.03;;
70806;SDS011;58882;52.170;5.386;2023-06-14T02:54:42;7.57;;;2.60;;
70806;SDS011;58882;52.170;5.386;2023-06-14T02:57:28;7.97;;;2.72;;
70806;SDS011;58882;52.170;5.386;2023-06-14T03:00:02;5.95;;;2.55;;
70806;SDS011;58882;52.170;5.386;2023-06-14T03:03:16;8.05;;;2.63;;
70806;SDS011;58882;52.170;5.386;2023-06-14T03:05:54;10.30;;;2.90;;
70806;SDS011;58882;52.170;5.386;2023-06-14T03:08:55;7.57;;;2.60;;
70806;SDS011;58882;52.170;5.386;2023-06-14T03:11:34;8.35;;;2.63;;
70806;SDS011;58882;52.170;5.386;2023-06-14T03:14:29;7.43;;;2.72;;
70806;SDS011;58882;52.170;5.386;2023-06-14T03:17:03;8.05;;;2.65;;
70806;SDS011;58882;52.170;5.386;2023-06-14T03:19:57;6.82;;;2.70;;
70806;SDS011;58882;52.170;5.386;2023-06-14T03:22:32;7.22;;;2.70;;
70806;SDS011;58882;52.170;5.386;2023-06-14T03:25:26;5.93;;;2.50;;
70806;SDS011;58882;52.170;5.386;2023-06-14T03:28:10;10.07;;;2.90;;
70806;SDS011;58882;52.170;5.386;2023-06-14T03:30:59;8.98;;;2.92;;
70806;SDS011;58882;52.170;5.386;2023-06-14T03:36:26;7.13;;;2.83;;
70806;SDS011;58882;52.170;5.386;2023-06-14T03:42:02;10.00;;;2.33;;
70806;SDS011;58882;52.170;5.386;2023-06-14T03:44:43;7.15;;;2.50;;
70806;SDS011;58882;52.170;5.386;2023-06-14T03:47:30;6.93;;;2.50;;
70806;SDS011;58882;52.170;5.386;2023-06-14T03:50:11;7.10;;;2.42;;
70806;SDS011;58882;52.170;5.386;2023-06-14T03:52:58;8.98;;;2.40;;
70806;SDS011;58882;52.170;5.386;2023-06-14T03:55:37;9.57;;;2.80;;
70806;SDS011;58882;52.170;5.386;2023-06-14T03:58:43;5.95;;;2.50;;
70806;SDS011;58882;52.170;5.386;2023-06-14T04:01:19;9.25;;;2.90;;
70806;SDS011;58882;52.170;5.386;2023-06-14T04:04:15;8.07;;;2.75;;
70806;SDS011;58882;52.170;5.386;2023-06-14T04:06:49;9.80;;;2.85;;
70806;SDS011;58882;52.170;5.386;2023-06-14T04:09:45;6.20;;;2.45;;
70806;SDS011;58882;52.170;5.386;2023-06-14T04:12:25;9.13;;;2.40;;
70806;SDS011;58882;52.170;5.386;2023-06-14T04:15:11;7.13;;;2.40;;
70806;SDS011;58882;52.170;5.386;2023-06-14T04:17:55;6.38;;;2.50;;
70806;SDS011;58882;52.170;5.386;2023-06-14T04:20:49;9.23;;;2.80;;
70806;SDS011;58882;52.170;5.386;2023-06-14T04:23:23;7.97;;;2.90;;
70806;SDS011;58882;52.170;5.386;2023-06-14T04:26:18;7.22;;;2.70;;
70806;SDS011;58882;52.170;5.386;2023-06-14T04:28:59;6.72;;;2.47;;
70806;SDS011;58882;52.170;5.386;2023-06-14T04:31:47;7.63;;;2.70;;
70806;SDS011;58882;52.170;5.386;2023-06-14T04:34:29;8.05;;;2.45;;
70806;SDS011;58882;52.170;5.386;2023-06-14T04:37:23;7.88;;;2.70;;
70806;SDS011;58882;52.170;5.386;2023-06-14T04:40:04;7.60;;;2.42;;
70806;SDS011;58882;52.170;5.386;2023-06-14T04:42:58;6.15;;;2.55;;
70806;SDS011;58882;52.170;5.386;2023-06-14T04:45:47;7.80;;;2.53;;
70806;SDS011;58882;52.170;5.386;2023-06-14T04:48:43;13.57;;;2.80;;
70806;SDS011;58882;52.170;5.386;2023-06-14T04:51:24;8.30;;;2.80;;
70806;SDS011;58882;52.170;5.386;2023-06-14T04:54:15;7.63;;;2.85;;
70806;SDS011;58882;52.170;5.386;2023-06-14T04:56:57;8.60;;;2.60;;
70806;SDS011;58882;52.170;5.386;2023-06-14T04:59:45;6.45;;;2.40;;
70806;SDS011;58882;52.170;5.386;2023-06-14T05:02:30;9.73;;;3.00;;
70806;SDS011;58882;52.170;5.386;2023-06-14T05:07:59;7.80;;;2.67;;
70806;SDS011;58882;52.170;5.386;2023-06-14T05:10:46;7.25;;;2.90;;
70806;SDS011;58882;52.170;5.386;2023-06-14T05:13:26;11.68;;;2.85;;
70806;SDS011;58882;52.170;5.386;2023-06-14T05:16:13;8.75;;;2.75;;
70806;SDS011;58882;52.170;5.386;2023-06-14T05:18:52;9.68;;;2.85;;
70806;SDS011;58882;52.170;5.386;2023-06-14T05:21:47;8.40;;;2.80;;
70806;SDS011;58882;52.170;5.386;2023-06-14T05:24:21;9.57;;;3.10;;
70806;SDS011;58882;52.170;5.386;2023-06-14T05:27:16;11.82;;;3.03;;
70806;SDS011;58882;52.170;5.386;2023-06-14T05:29:50;5.88;;;2.50;;
70806;SDS011;58882;52.170;5.386;2023-06-14T05:32:44;7.05;;;3.10;;
70806;SDS011;58882;52.170;5.386;2023-06-14T05:35:25;7.80;;;2.92;;
70806;SDS011;58882;52.170;5.386;2023-06-14T05:38:12;6.97;;;2.72;;
70806;SDS011;58882;52.170;5.386;2023-06-14T05:40:52;9.05;;;2.70;;
70806;SDS011;58882;52.170;5.386;2023-06-14T05:43:38;9.80;;;3.15;;
70806;SDS011;58882;52.170;5.386;2023-06-14T05:46:26;7.68;;;2.80;;
70806;SDS011;58882;52.170;5.386;2023-06-14T05:49:20;7.90;;;2.70;;
70806;SDS011;58882;52.170;5.386;2023-06-14T05:52:00;6.78;;;2.75;;
70806;SDS011;58882;52.170;5.386;2023-06-14T05:54:47;7.35;;;2.67;;
70806;SDS011;58882;52.170;5.386;2023-06-14T05:57:27;7.13;;;2.63;;
70806;SDS011;58882;52.170;5.386;2023-06-14T06:00:14;5.43;;;2.53;;
70806;SDS011;58882;52.170;5.386;2023-06-14T06:02:55;11.52;;;2.97;;
70806;SDS011;58882;52.170;5.386;2023-06-14T06:05:41;8.27;;;2.80;;
70806;SDS011;58882;52.170;5.386;2023-06-14T06:08:22;7.15;;;2.67;;
70806;SDS011;58882;52.170;5.386;2023-06-14T06:11:09;6.72;;;2.78;;
70806;SDS011;58882;52.170;5.386;2023-06-14T06:13:49;7.50;;;2.97;;
70806;SDS011;58882;52.170;5.386;2023-06-14T06:16:35;7.10;;;2.70;;
70806;SDS011;58882;52.170;5.386;2023-06-14T06:19:16;14.73;;;2.97;;
70806;SDS011;58882;52.170;5.386;2023-06-14T06:22:03;9.75;;;2.70;;
70806;SDS011;58882;52.170;5.386;2023-06-14T06:24:46;6.85;;;2.80;;
70806;SDS011;58882;52.170;5.386;2023-06-14T06:27:32;8.95;;;2.90;;
70806;SDS011;58882;52.170;5.386;2023-06-14T06:30:13;6.30;;;3.13;;
70806;SDS011;58882;52.170;5.386;2023-06-14T06:32:59;6.82;;;2.80;;
70806;SDS011;58882;52.170;5.386;2023-06-14T06:35:40;7.45;;;2.83;;
70806;SDS011;58882;52.170;5.386;2023-06-14T06:38:26;15.65;;;2.88;;
70806;SDS011;58882;52.170;5.386;2023-06-14T06:41:07;23.55;;;3.80;;
70806;SDS011;58882;52.170;5.386;2023-06-14T06:44:00;19.95;;;3.33;;
70806;SDS011;58882;52.170;5.386;2023-06-14T06:46:47;15.45;;;3.50;;
70806;SDS011;58882;52.170;5.386;2023-06-14T06:49:42;10.85;;;2.92;;
70806;SDS011;58882;52.170;5.386;2023-06-14T06:52:15;10.23;;;3.33;;
70806;SDS011;58882;52.170;5.386;2023-06-14T06:55:09;11.95;;;3.05;;
70806;SDS011;58882;52.170;5.386;2023-06-14T06:57:49;11.52;;;3.17;;
70806;SDS011;58882;52.170;5.386;2023-06-14T07:00:36;8.77;;;3.28;;
70806;SDS011;58882;52.170;5.386;2023-06-14T07:03:16;10.23;;;3.10;;
70806;SDS011;58882;52.170;5.386;2023-06-14T07:06:03;13.35;;;3.20;;
70806;SDS011;58882;52.170;5.386;2023-06-14T07:08:43;10.77;;;3.38;;
70806;SDS011;58882;52.170;5.386;2023-06-14T07:11:29;23.45;;;3.75;;
70806;SDS011;58882;52.170;5.386;2023-06-14T07:14:10;13.88;;;3.20;;
70806;SDS011;58882;52.170;5.386;2023-06-14T07:16:57;9.73;;;2.80;;
70806;SDS011;58882;52.170;5.386;2023-06-14T07:19:37;6.43;;;2.80;;
70806;SDS011;58882;52.170;5.386;2023-06-14T07:22:31;9.27;;;2.80;;
70806;SDS011;58882;52.170;5.386;2023-06-14T07:25:11;7.97;;;2.80;;
70806;SDS011;58882;52.170;5.386;2023-06-14T07:28:01;5.90;;;2.72;;
70806;SDS011;58882;52.170;5.386;2023-06-14T07:30:34;8.10;;;2.70;;
70806;SDS011;58882;52.170;5.386;2023-06-14T07:33:29;5.82;;;2.70;;
70806;SDS011;58882;52.170;5.386;2023-06-14T07:36:09;6.85;;;2.80;;
70806;SDS011;58882;52.170;5.386;2023-06-14T07:38:56;7.03;;;2.85;;
70806;SDS011;58882;52.170;5.386;2023-06-14T07:41:37;8.00;;;2.55;;
70806;SDS011;58882;52.170;5.386;2023-06-14T07:44:24;6.90;;;2.75;;
70806;SDS011;58882;52.170;5.386;2023-06-14T07:47:11;8.48;;;2.60;;
70806;SDS011;58882;52.170;5.386;2023-06-14T07:49:51;6.68;;;2.35;;
70806;SDS011;58882;52.170;5.386;2023-06-14T07:52:40;10.27;;;2.55;;
70806;SDS011;58882;52.170;5.386;2023-06-14T07:55:20;5.97;;;2.65;;
70806;SDS011;58882;52.170;5.386;2023-06-14T07:58:15;7.07;;;2.50;;
70806;SDS011;58882;52.170;5.386;2023-06-14T08:00:55;5.82;;;2.60;;
70806;SDS011;58882;52.170;5.386;2023-06-14T08:03:53;6.43;;;2.47;;
70806;SDS011;58882;52.170;5.386;2023-06-14T08:06:27;6.45;;;2.33;;
70806;SDS011;58882;52.170;5.386;2023-06-14T08:09:21;6.72;;;2.50;;
70806;SDS011;58882;52.170;5.386;2023-06-14T08:11:55;5.25;;;2.42;;
70806;SDS011;58882;52.170;5.386;2023-06-14T08:14:49;6.00;;;2.40;;
70806;SDS011;58882;52.170;5.386;2023-06-14T08:17:42;8.35;;;2.20;;
70806;SDS011;58882;52.170;5.386;2023-06-14T08:20:38;7.68;;;2.35;;
70806;SDS011;58882;52.170;5.386;2023-06-14T08:23:13;11.55;;;2.47;;
70806;SDS011;58882;52.170;5.386;2023-06-14T08:26:08;10.98;;;2.38;;
70806;SDS011;58882;52.170;5.386;2023-06-14T08:28:42;9.30;;;2.30;;
70806;SDS011;58882;52.170;5.386;2023-06-14T08:31:36;9.10;;;1.88;;
70806;SDS011;58882;52.170;5.386;2023-06-14T08:34:09;5.47;;;2.00;;
70806;SDS011;58882;52.170;5.386;2023-06-14T08:37:03;8.32;;;2.30;;
70806;SDS011;58882;52.170;5.386;2023-06-14T08:39:37;4.90;;;2.13;;
70806;SDS011;58882;52.170;5.386;2023-06-14T08:42:31;4.78;;;1.95;;
70806;SDS011;58882;52.170;5.386;2023-06-14T08:45:05;3.97;;;2.10;;
70806;SDS011;58882;52.170;5.386;2023-06-14T08:47:59;4.03;;;1.80;;
70806;SDS011;58882;52.170;5.386;2023-06-14T08:50:39;3.13;;;1.92;;
70806;SDS011;58882;52.170;5.386;2023-06-14T08:53:35;3.17;;;1.60;;
70806;SDS011;58882;52.170;5.386;2023-06-14T08:56:17;3.08;;;1.73;;
70806;SDS011;58882;52.170;5.386;2023-06-14T08:59:05;5.00;;;1.80;;
70806;SDS011;58882;52.170;5.386;2023-06-14T09:01:46;4.90;;;1.70;;
70806;SDS011;58882;52.170;5.386;2023-06-14T09:04:52;4.10;;;1.63;;
70806;SDS011;58882;52.170;5.386;2023-06-14T09:07:25;3.70;;;1.83;;
70806;SDS011;58882;52.170;5.386;2023-06-14T09:10:19;3.85;;;1.70;;
70806;SDS011;58882;52.170;5.386;2023-06-14T09:13:01;5.25;;;1.77;;
70806;SDS011;58882;52.170;5.386;2023-06-14T09:15:48;4.32;;;1.67;;
70806;SDS011;58882;52.170;5.386;2023-06-14T09:18:38;5.28;;;1.80;;
70806;SDS011;58882;52.170;5.386;2023-06-14T09:21:39;3.42;;;1.73;;
70806;SDS011;58882;52.170;5.386;2023-06-14T09:24:14;3.03;;;1.63;;
70806;SDS011;58882;52.170;5.386;2023-06-14T09:27:08;4.07;;;1.70;;
70806;SDS011;58882;52.170;5.386;2023-06-14T09:29:41;4.28;;;1.90;;
70806;SDS011;58882;52.170;5.386;2023-06-14T09:32:38;3.95;;;1.77;;
70806;SDS011;58882;52.170;5.386;2023-06-14T09:35:19;3.33;;;1.83;;
70806;SDS011;58882;52.170;5.386;2023-06-14T09:38:07;4.68;;;1.83;;
70806;SDS011;58882;52.170;5.386;2023-06-14T09:40:49;3.50;;;1.88;;
70806;SDS011;58882;52.170;5.386;2023-06-14T09:43:43;3.80;;;1.80;;
70806;SDS011;58882;52.170;5.386;2023-06-14T09:46:31;4.78;;;1.83;;
70806;SDS011;58882;52.170;5.386;2023-06-14T09:49:12;4.82;;;1.73;;
70806;SDS011;58882;52.170;5.386;2023-06-14T09:51:59;4.57;;;1.90;;
70806;SDS011;58882;52.170;5.386;2023-06-14T09:54:42;4.07;;;1.67;;
70806;SDS011;58882;52.170;5.386;2023-06-14T09:57:31;3.67;;;1.73;;
70806;SDS011;58882;52.170;5.386;2023-06-14T10:00:14;2.65;;;1.60;;
70806;SDS011;58882;52.170;5.386;2023-06-14T10:03:13;4.07;;;1.70;;
70806;SDS011;58882;52.170;5.386;2023-06-14T10:05:54;4.03;;;1.88;;
70806;SDS011;58882;52.170;5.386;2023-06-14T10:08:44;3.33;;;1.63;;
70806;SDS011;58882;52.170;5.386;2023-06-14T10:11:25;3.05;;;1.63;;
70806;SDS011;58882;52.170;5.386;2023-06-14T10:14:13;5.07;;;1.60;;
70806;SDS011;58882;52.170;5.386;2023-06-14T10:16:56;3.85;;;1.50;;
70806;SDS011;58882;52.170;5.386;2023-06-14T10:19:54;3.50;;;1.70;;
70806;SDS011;58882;52.170;5.386;2023-06-14T10:23:16;6.70;;;1.88;;
70806;SDS011;58882;52.170;5.386;2023-06-14T10:25:59;3.55;;;1.67;;
70806;SDS011;58882;52.170;5.386;2023-06-14T10:28:54;2.60;;;1.58;;
70806;SDS011;58882;52.170;5.386;2023-06-14T10:31:46;4.38;;;1.65;;
70806;SDS011;58882;52.170;5.386;2023-06-14T10:34:41;3.35;;;1.60;;
70806;SDS011;58882;52.170;5.386;2023-06-14T10:40:08;2.80;;;1.65;;
70806;SDS011;58882;52.170;5.386;2023-06-14T10:42:51;5.03;;;1.70;;
70806;SDS011;58882;52.170;5.386;2023-06-14T10:45:46;5.40;;;1.70;;
70806;SDS011;58882;52.170;5.386;2023-06-14T10:48:51;3.55;;;1.50;;
70806;SDS011;58882;52.170;5.386;2023-06-14T10:51:44;4.07;;;1.42;;
70806;SDS011;58882;52.170;5.386;2023-06-14T10:54:41;3.70;;;1.60;;
70806;SDS011;58882;52.170;5.386;2023-06-14T10:57:46;4.00;;;1.55;;
70806;SDS011;58882;52.170;5.386;2023-06-14T11:00:32;4.40;;;1.60;;
70806;SDS011;58882;52.170;5.386;2023-06-14T11:03:43;5.00;;;1.70;;
70806;SDS011;58882;52.170;5.386;2023-06-14T11:06:28;2.10;;;1.40;;
70806;SDS011;58882;52.170;5.386;2023-06-14T11:09:57;5.38;;;1.63;;
70806;SDS011;58882;52.170;5.386;2023-06-14T11:12:52;2.83;;;1.63;;
70806;SDS011;58882;52.170;5.386;2023-06-14T11:15:48;5.93;;;1.65;;
70806;SDS011;58882;52.170;5.386;2023-06-14T11:18:29;6.28;;;1.60;;
70806;SDS011;58882;52.170;5.386;2023-06-14T11:21:16;4.70;;;1.70;;
70806;SDS011;58882;52.170;5.386;2023-06-14T11:23:58;5.13;;;1.73;;
70806;SDS011;58882;52.170;5.386;2023-06-14T11:26:46;6.28;;;1.45;;
70806;SDS011;58882;52.170;5.386;2023-06-14T11:29:28;4.85;;;1.48;;
70806;SDS011;58882;52.170;5.386;2023-06-14T11:32:16;3.40;;;1.40;;
70806;SDS011;58882;52.170;5.386;2023-06-14T11:34:56;4.60;;;1.67;;
70806;SDS011;58882;52.170;5.386;2023-06-14T11:37:44;3.03;;;1.77;;
70806;SDS011;58882;52.170;5.386;2023-06-14T11:40:27;4.10;;;1.45;;
70806;SDS011;58882;52.170;5.386;2023-06-14T11:43:14;2.60;;;1.55;;
70806;SDS011;58882;52.170;5.386;2023-06-14T11:45:54;3.83;;;1.48;;
70806;SDS011;58882;52.170;5.386;2023-06-14T11:48:48;3.72;;;1.70;;
70806;SDS011;58882;52.170;5.386;2023-06-14T11:51:28;4.10;;;1.67;;
70806;SDS011;58882;52.170;5.386;2023-06-14T11:54:16;2.58;;;1.60;;
70806;SDS011;58882;52.170;5.386;2023-06-14T11:56:56;3.80;;;1.70;;
70806;SDS011;58882;52.170;5.386;2023-06-14T11:59:50;4.38;;;1.45;;
70806;SDS011;58882;52.170;5.386;2023-06-14T12:02:36;3.25;;;1.60;;
70806;SDS011;58882;52.170;5.386;2023-06-14T12:05:24;4.75;;;1.80;;
70806;SDS011;58882;52.170;5.386;2023-06-14T12:08:06;3.00;;;1.55;;
70806;SDS011;58882;52.170;5.386;2023-06-14T12:10:57;5.40;;;1.77;;
70806;SDS011;58882;52.170;5.386;2023-06-14T12:13:40;3.63;;;1.50;;
70806;SDS011;58882;52.170;5.386;2023-06-14T12:16:30;5.70;;;1.80;;
70806;SDS011;58882;52.170;5.386;2023-06-14T12:19:14;2.63;;;1.40;;
70806;SDS011;58882;52.170;5.386;2023-06-14T12:22:03;3.88;;;1.55;;
70806;SDS011;58882;52.170;5.386;2023-06-14T12:24:44;4.70;;;1.73;;
70806;SDS011;58882;52.170;5.386;2023-06-14T12:27:33;5.40;;;1.60;;
70806;SDS011;58882;52.170;5.386;2023-06-14T12:30:13;4.05;;;1.60;;
70806;SDS011;58882;52.170;5.386;2023-06-14T12:33:01;3.38;;;1.70;;
70806;SDS011;58882;52.170;5.386;2023-06-14T12:35:42;5.05;;;1.52;;
70806;SDS011;58882;52.170;5.386;2023-06-14T12:38:29;4.82;;;1.80;;
70806;SDS011;58882;52.170;5.386;2023-06-14T12:41:09;2.47;;;1.48;;
70806;SDS011;58882;52.170;5.386;2023-06-14T12:43:56;3.83;;;1.85;;
70806;SDS011;58882;52.170;5.386;2023-06-14T12:46:37;5.18;;;1.70;;
70806;SDS011;58882;52.170;5.386;2023-06-14T12:49:24;6.53;;;1.65;;
70806;SDS011;58882;52.170;5.386;2023-06-14T12:52:04;5.53;;;2.00;;
70806;SDS011;58882;52.170;5.386;2023-06-14T12:54:58;2.67;;;1.77;;
70806;SDS011;58882;52.170;5.386;2023-06-14T12:57:38;3.92;;;1.70;;
70806;SDS011;58882;52.170;5.386;2023-06-14T13:00:32;4.82;;;1.92;;
70806;SDS011;58882;52.170;5.386;2023-06-14T13:03:12;5.13;;;2.00;;
70806;SDS011;58882;52.170;5.386;2023-06-14T13:05:59;4.18;;;1.77;;
70806;SDS011;58882;52.170;5.386;2023-06-14T13:08:40;3.10;;;1.75;;
70806;SDS011;58882;52.170;5.386;2023-06-14T13:11:28;3.92;;;1.63;;
70806;SDS011;58882;52.170;5.386;2023-06-14T13:14:08;2.72;;;1.70;;
70806;SDS011;58882;52.170;5.386;2023-06-14T13:17:05;5.70;;;1.88;;
70806;SDS011;58882;52.170;5.386;2023-06-14T13:19:45;7.80;;;1.80;;
70806;SDS011;58882;52.170;5.386;2023-06-14T13:22:32;2.60;;;1.58;;
70806;SDS011;58882;52.170;5.386;2023-06-14T13:25:12;3.58;;;1.52;;
70806;SDS011;58882;52.170;5.386;2023-06-14T13:27:59;3.20;;;1.63;;
70806;SDS011;58882;52.170;5.386;2023-06-14T13:30:39;6.05;;;1.63;;
70806;SDS011;58882;52.170;5.386;2023-06-14T13:33:26;3.72;;;1.52;;
70806;SDS011;58882;52.170;5.386;2023-06-14T13:36:06;5.18;;;1.70;;
70806;SDS011;58882;52.170;5.386;2023-06-14T13:38:53;4.50;;;1.60;;
70806;SDS011;58882;52.170;5.386;2023-06-14T13:41:34;4.95;;;1.60;;
70806;SDS011;58882;52.170;5.386;2023-06-14T13:44:21;4.30;;;1.88;;
70806;SDS011;58882;52.170;5.386;2023-06-14T13:47:08;5.68;;;1.83;;
70806;SDS011;58882;52.170;5.386;2023-06-14T13:50:02;4.10;;;1.70;;
70806;SDS011;58882;52.170;5.386;2023-06-14T13:52:43;3.33;;;1.60;;
70806;SDS011;58882;52.170;5.386;2023-06-14T13:55:30;6.28;;;1.85;;
70806;SDS011;58882;52.170;5.386;2023-06-14T13:58:10;5.28;;;1.55;;
70806;SDS011;58882;52.170;5.386;2023-06-14T14:00:57;4.43;;;1.70;;
70806;SDS011;58882;52.170;5.386;2023-06-14T14:03:39;3.60;;;1.75;;
70806;SDS011;58882;52.170;5.386;2023-06-14T14:06:33;5.10;;;1.65;;
70806;SDS011;58882;52.170;5.386;2023-06-14T14:09:06;4.78;;;1.80;;
70806;SDS011;58882;52.170;5.386;2023-06-14T14:12:02;3.47;;;1.60;;
70806;SDS011;58882;52.170;5.386;2023-06-14T14:14:36;4.13;;;1.55;;
70806;SDS011;58882;52.170;5.386;2023-06-14T14:17:30;6.90;;;1.70;;
70806;SDS011;58882;52.170;5.386;2023-06-14T14:20:10;3.03;;;1.73;;
70806;SDS011;58882;52.170;5.386;2023-06-14T14:23:04;3.80;;;1.60;;
70806;SDS011;58882;52.170;5.386;2023-06-14T14:25:37;2.60;;;1.48;;
70806;SDS011;58882;52.170;5.386;2023-06-14T14:28:31;4.70;;;1.52;;
70806;SDS011;58882;52.170;5.386;2023-06-14T14:31:06;2.92;;;1.60;;
70806;SDS011;58882;52.170;5.386;2023-06-14T14:34:00;2.88;;;1.60;;
70806;SDS011;58882;52.170;5.386;2023-06-14T14:36:33;2.95;;;1.80;;
70806;SDS011;58882;52.170;5.386;2023-06-14T14:39:29;3.63;;;1.55;;
70806;SDS011;58882;52.170;5.386;2023-06-14T14:42:03;4.82;;;1.77;;
70806;SDS011;58882;52.170;5.386;2023-06-14T14:44:58;3.70;;;1.60;;
70806;SDS011;58882;52.170;5.386;2023-06-14T14:47:31;2.83;;;1.40;;
70806;SDS011;58882;52.170;5.386;2023-06-14T14:50:25;2.72;;;1.35;;
70806;SDS011;58882;52.170;5.386;2023-06-14T14:52:59;3.47;;;1.75;;
70806;SDS011;58882;52.170;5.386;2023-06-14T14:55:53;5.53;;;1.58;;
70806;SDS011;58882;52.170;5.386;2023-06-14T14:58:26;5.00;;;1.50;;
70806;SDS011;58882;52.170;5.386;2023-06-14T15:01:20;2.90;;;1.40;;
70806;SDS011;58882;52.170;5.386;2023-06-14T15:04:00;4.45;;;1.60;;
70806;SDS011;58882;52.170;5.386;2023-06-14T15:06:54;2.35;;;1.40;;
70806;SDS011;58882;52.170;5.386;2023-06-14T15:09:34;5.97;;;1.58;;
70806;SDS011;58882;52.170;5.386;2023-06-14T15:12:21;4.82;;;1.75;;
70806;SDS011;58882;52.170;5.386;2023-06-14T15:15:03;4.15;;;1.50;;
70806;SDS011;58882;52.170;5.386;2023-06-14T15:17:58;2.60;;;1.52;;
70806;SDS011;58882;52.170;5.386;2023-06-14T15:20:39;3.67;;;1.60;;
70806;SDS011;58882;52.170;5.386;2023-06-14T15:23:33;3.47;;;1.40;;
70806;SDS011;58882;52.170;5.386;2023-06-14T15:26:13;4.05;;;1.60;;
70806;SDS011;58882;52.170;5.386;2023-06-14T15:29:07;4.03;;;1.67;;
70806;SDS011;58882;52.170;5.386;2023-06-14T15:31:47;4.18;;;1.60;;
70806;SDS011;58882;52.170;5.386;2023-06-14T15:34:35;2.20;;;1.50;;
70806;SDS011;58882;52.170;5.386;2023-06-14T15:37:15;3.53;;;1.50;;
70806;SDS011;58882;52.170;5.386;2023-06-14T15:40:02;2.90;;;1.50;;
70806;SDS011;58882;52.170;5.386;2023-06-14T15:42:42;3.50;;;1.55;;
70806;SDS011;58882;52.170;5.386;2023-06-14T15:45:29;4.25;;;1.58;;
70806;SDS011;58882;52.170;5.386;2023-06-14T15:48:02;6.28;;;1.52;;
70806;SDS011;58882;52.170;5.386;2023-06-14T15:50:56;5.28;;;1.35;;
70806;SDS011;58882;52.170;5.386;2023-06-14T15:53:29;2.25;;;1.50;;
70806;SDS011;58882;52.170;5.386;2023-06-14T15:56:23;4.03;;;1.60;;
70806;SDS011;58882;52.170;5.386;2023-06-14T15:59:03;4.50;;;1.40;;
70806;SDS011;58882;52.170;5.386;2023-06-14T16:01:57;2.95;;;1.40;;
70806;SDS011;58882;52.170;5.386;2023-06-14T16:04:37;2.65;;;1.50;;
70806;SDS011;58882;52.170;5.386;2023-06-14T16:07:32;6.00;;;1.73;;
70806;SDS011;58882;52.170;5.386;2023-06-14T16:10:06;3.80;;;2.28;;
70806;SDS011;58882;52.170;5.386;2023-06-14T16:13:00;9.02;;;1.70;;
70806;SDS011;58882;52.170;5.386;2023-06-14T16:15:40;4.13;;;1.58;;
70806;SDS011;58882;52.170;5.386;2023-06-14T16:18:34;2.72;;;1.50;;
70806;SDS011;58882;52.170;5.386;2023-06-14T16:21:14;4.40;;;1.60;;
70806;SDS011;58882;52.170;5.386;2023-06-14T16:24:02;4.13;;;1.58;;
70806;SDS011;58882;52.170;5.386;2023-06-14T16:26:37;1.63;;;1.20;;
70806;SDS011;58882;52.170;5.386;2023-06-14T16:29:31;4.57;;;1.40;;
70806;SDS011;58882;52.170;5.386;2023-06-14T16:32:11;2.75;;;1.60;;
70806;SDS011;58882;52.170;5.386;2023-06-14T16:34:58;4.20;;;1.75;;
70806;SDS011;58882;52.170;5.386;2023-06-14T16:37:31;4.63;;;1.60;;
70806;SDS011;58882;52.170;5.386;2023-06-14T16:40:25;2.95;;;1.45;;
70806;SDS011;58882;52.170;5.386;2023-06-14T16:43:06;4.57;;;1.60;;
70806;SDS011;58882;52.170;5.386;2023-06-14T16:46:00;4.43;;;1.50;;
70806;SDS011;58882;52.170;5.386;2023-06-14T16:48:54;3.05;;;1.63;;
70806;SDS011;58882;52.170;5.386;2023-06-14T16:51:34;3.38;;;1.80;;
70806;SDS011;58882;52.170;5.386;2023-06-14T16:54:21;3.22;;;1.60;;
70806;SDS011;58882;52.170;5.386;2023-06-14T16:57:01;3.53;;;1.30;;